Time;durP1;ratioP1;P1;durP2;ratioP2;P2;SDS_P1;SDS_P2;PMS_P1;PMS_P2;Temp;Humidity;BMP_temperature;BMP_pressure;BME280_temperature;BME280_humidity;BME280_pressure;Samples;Min_cycle;Max_cycle;Signal;HPM_P1;HPM_P2
2022/10/30 00:02:39;;;;;;;9.43;3.40;;;;;;;17.55;68.80;101090.53;6001823;28;20553;-67
2022/10/30 00:05:35;;;;;;;9.35;3.05;;;;;;;17.60;68.27;101096.16;6001868;28;20051;-67
2022/10/30 00:08:30;;;;;;;9.40;3.00;;;;;;;17.76;67.61;101120.16;6002215;28;20042;-68
2022/10/30 00:11:28;;;;;;;9.82;3.05;;;;;;;17.70;67.56;101104.78;6001558;28;20378;-68
2022/10/30 00:14:23;;;;;;;7.18;3.30;;;;;;;17.75;66.76;101091.66;6000571;28;20062;-67
2022/10/30 00:17:18;;;;;;;9.13;2.30;;;;;;;17.71;67.17;101106.47;6001965;28;20117;-68
2022/10/30 00:20:14;;;;;;;14.10;5.27;;;;;;;17.79;66.77;101109.06;6001228;28;20034;-68
2022/10/30 00:23:09;;;;;;;9.80;3.38;;;;;;;17.91;66.38;101122.03;6001603;28;20455;-67
2022/10/30 00:26:06;;;;;;;10.67;3.30;;;;;;;17.82;66.27;101100.66;6001522;28;20027;-67
2022/10/30 00:29:01;;;;;;;7.03;2.83;;;;;;;17.86;66.52;101135.97;6001080;28;20360;-68
2022/10/30 00:31:56;;;;;;;5.85;2.90;;;;;;;17.77;66.80;101132.53;6001211;28;20482;-68
2022/10/30 00:34:53;;;;;;;12.53;3.13;;;;;;;17.66;67.76;101134.84;6001549;28;20078;-68
2022/10/30 00:37:48;;;;;;;12.30;2.63;;;;;;;17.55;67.80;101128.06;6001759;28;20066;-68
2022/10/30 00:40:44;;;;;;;13.23;3.00;;;;;;;17.46;68.39;101139.00;6000933;28;20037;-69
2022/10/30 00:43:40;;;;;;;8.70;2.92;;;;;;;17.37;68.48;101127.50;6001030;28;20054;-68
2022/10/30 00:46:38;;;;;;;9.07;2.80;;;;;;;17.30;68.78;101123.03;6000556;28;20030;-68
2022/10/30 00:49:36;;;;;;;7.18;2.65;;;;;;;17.33;69.29;101130.72;6001137;28;20105;-68
2022/10/30 00:52:34;;;;;;;11.77;3.13;;;;;;;17.13;69.79;101122.31;5999465;28;20085;-68
2022/10/30 00:55:32;;;;;;;12.32;3.13;;;;;;;16.89;71.82;101104.56;6000785;28;20494;-68
2022/10/30 00:58:31;;;;;;;10.45;3.17;;;;;;;16.79;71.55;101097.78;6001441;28;20630;-68
2022/10/30 01:01:28;;;;;;;8.10;3.17;;;;;;;16.71;72.54;101101.34;6000150;28;20066;-68
2022/10/30 01:04:24;;;;;;;11.25;2.95;;;;;;;16.66;72.85;101106.38;5999348;28;20068;-68
2022/10/30 01:07:19;;;;;;;10.98;3.35;;;;;;;16.58;73.79;101107.25;5999777;28;20356;-68
2022/10/30 01:10:16;;;;;;;13.70;3.53;;;;;;;16.23;76.04;101107.72;5999875;28;20034;-68
2022/10/30 01:13:12;;;;;;;10.18;2.75;;;;;;;16.19;76.31;101122.47;6000463;28;20136;-68
2022/10/30 01:16:22;;;;;;;7.15;3.15;;;;;;;16.08;76.07;101125.50;5999445;28;20035;-68
2022/10/30 01:19:25;;;;;;;9.63;3.00;;;;;;;16.15;75.41;101130.97;6000519;28;20089;-68
2022/10/30 01:22:29;;;;;;;8.10;2.83;;;;;;;16.29;74.61;101124.91;5998814;28;20034;-68
2022/10/30 01:25:46;;;;;;;7.88;3.13;;;;;;;16.65;73.03;101129.66;5999159;28;20038;-68
2022/10/30 01:28:49;;;;;;;11.77;2.97;;;;;;;16.74;72.24;101126.94;5999133;28;20403;-68
2022/10/30 01:31:49;;;;;;;10.00;2.65;;;;;;;16.85;71.73;101131.91;5998757;28;20118;-68
2022/10/30 01:34:55;;;;;;;7.57;2.85;;;;;;;16.98;71.23;101124.13;5991202;28;20035;-67
2022/10/30 01:38:09;;;;;;;12.10;3.55;;;;;;;16.85;71.24;101113.16;5990003;28;20051;-68
2022/10/30 01:41:04;;;;;;;10.07;4.18;;;;;;;16.73;71.93;101110.03;5996754;28;20494;-68
2022/10/30 01:44:08;;;;;;;6.27;2.60;;;;;;;16.81;71.94;101114.50;5999645;28;20046;-68
2022/10/30 01:47:39;;;;;;;8.98;3.25;;;;;;;16.87;71.52;101111.13;5999106;28;20616;-68
2022/10/30 01:51:10;;;;;;;8.90;2.72;;;;;;;16.83;71.27;101099.91;5999202;28;20463;-68
2022/10/30 01:54:14;;;;;;;8.35;2.90;;;;;;;16.83;71.38;101093.72;5998887;28;20416;-68
2022/10/30 01:57:32;;;;;;;8.23;2.90;;;;;;;16.88;71.57;101118.13;5999855;28;20038;-68
2022/10/30 02:00:31;;;;;;;15.93;3.03;;;;;;;16.84;71.56;101112.31;5998833;28;20069;-68
2022/10/30 02:03:27;;;;;;;8.13;2.85;;;;;;;16.88;71.22;101107.41;5998017;28;20378;-68
2022/10/30 02:06:22;;;;;;;14.02;3.00;;;;;;;16.92;71.32;101109.59;5999362;28;20030;-68
2022/10/30 02:09:19;;;;;;;13.93;2.73;;;;;;;16.96;70.74;101100.16;5999323;28;20043;-67
2022/10/30 02:12:14;;;;;;;10.55;3.13;;;;;;;17.02;70.52;101095.94;5997812;28;20430;-67
2022/10/30 02:15:10;;;;;;;7.53;2.88;;;;;;;17.15;70.44;101104.22;5997800;28;20038;-68
2022/10/30 02:18:05;;;;;;;8.75;2.95;;;;;;;17.08;69.76;101092.56;5998047;28;20051;-69
2022/10/30 02:21:00;;;;;;;11.97;3.00;;;;;;;16.92;70.42;101068.56;5998416;28;20497;-68
2022/10/30 02:23:56;;;;;;;12.00;4.13;;;;;;;17.11;70.29;101094.88;5999089;28;20062;-68
2022/10/30 02:26:51;;;;;;;10.50;3.27;;;;;;;17.11;70.48;101108.28;5998833;28;20341;-67
2022/10/30 02:29:48;;;;;;;6.70;2.80;;;;;;;17.02;70.61;101095.94;5998684;28;20081;-68
2022/10/30 02:32:43;;;;;;;7.80;3.28;;;;;;;17.06;70.74;101110.66;6000513;28;20475;-68
2022/10/30 02:35:38;;;;;;;9.30;3.30;;;;;;;16.99;70.95;101107.00;5999642;28;20039;-68
2022/10/30 02:38:34;;;;;;;8.27;2.90;;;;;;;16.93;71.02;101123.81;5998708;28;20776;-67
2022/10/30 02:41:29;;;;;;;9.67;2.77;;;;;;;16.77;71.70;101107.84;5998185;28;20042;-67
2022/10/30 02:44:24;;;;;;;6.40;2.47;;;;;;;16.70;72.13;101109.53;5998288;28;20066;-68
2022/10/30 02:47:20;;;;;;;10.27;3.43;;;;;;;16.73;72.18;101123.44;5998814;28;20070;-67
2022/10/30 02:50:15;;;;;;;10.37;3.50;;;;;;;16.59;72.83;101116.97;5997951;28;20039;-68
2022/10/30 02:53:10;;;;;;;13.20;2.85;;;;;;;16.57;73.31;101121.66;5998499;28;20369;-68
2022/10/30 02:56:08;;;;;;;9.50;3.40;;;;;;;16.36;74.31;101116.03;5998606;28;20074;-68
2022/10/30 02:59:03;;;;;;;7.38;3.03;;;;;;;16.37;74.00;101120.38;5998877;28;20019;-68
2022/10/30 03:01:58;;;;;;;7.20;2.80;;;;;;;16.29;75.40;101116.91;5998294;28;20031;-68
2022/10/30 03:04:54;;;;;;;8.50;3.07;;;;;;;16.18;75.32;101123.47;5998419;28;20198;-68
2022/10/30 03:07:50;;;;;;;5.70;2.73;;;;;;;16.16;74.83;101117.44;5998672;28;20282;-68
2022/10/30 03:10:45;;;;;;;7.65;2.83;;;;;;;16.08;75.15;101109.44;5997998;28;20038;-67
2022/10/30 03:13:42;;;;;;;13.00;3.50;;;;;;;16.06;75.27;101117.63;5998186;28;20045;-67
2022/10/30 03:16:37;;;;;;;8.15;3.03;;;;;;;15.99;75.54;101105.13;5998428;28;20662;-68
2022/10/30 03:19:33;;;;;;;11.97;3.50;;;;;;;15.97;75.67;101104.47;5998425;28;20035;-68
2022/10/30 03:22:28;;;;;;;13.83;3.20;;;;;;;15.92;76.13;101104.16;5998015;28;20043;-68
2022/10/30 03:25:25;;;;;;;11.02;3.33;;;;;;;15.78;76.81;101097.66;5998090;28;20765;-68
2022/10/30 03:28:25;;;;;;;9.10;2.78;;;;;;;15.78;76.82;101113.69;5998320;28;20046;-68
2022/10/30 03:31:20;;;;;;;10.45;2.60;;;;;;;15.68;77.06;101096.97;5997998;28;20065;-67
2022/10/30 03:34:16;;;;;;;9.15;2.85;;;;;;;15.74;76.80;101119.53;5997989;28;20031;-68
2022/10/30 03:37:11;;;;;;;9.17;3.40;;;;;;;15.64;77.13;101100.16;5998487;28;20042;-68
2022/10/30 03:40:07;;;;;;;12.00;2.87;;;;;;;15.65;77.28;101112.56;5997552;28;20266;-68
2022/10/30 03:43:02;;;;;;;12.00;3.03;;;;;;;15.56;77.74;101106.38;5998474;28;20070;-68
2022/10/30 03:45:57;;;;;;;11.57;3.20;;;;;;;15.59;77.77;101110.53;5998019;28;20041;-68
2022/10/30 03:48:53;;;;;;;12.80;2.83;;;;;;;15.58;77.52;101108.84;5998140;28;20309;-68
2022/10/30 03:51:48;;;;;;;10.48;3.38;;;;;;;15.52;77.49;101107.69;6001752;28;20274;-68
2022/10/30 03:54:43;;;;;;;9.07;2.93;;;;;;;15.56;77.90;101114.38;6002049;28;20502;-68
2022/10/30 03:57:39;;;;;;;7.33;2.83;;;;;;;15.63;77.29;101103.84;6002579;28;20073;-68
2022/10/30 04:00:35;;;;;;;10.43;2.67;;;;;;;15.57;77.37;101093.84;6001883;28;20030;-67
2022/10/30 04:03:30;;;;;;;8.60;2.92;;;;;;;15.56;77.53;101100.19;6001539;28;20042;-68
2022/10/30 04:06:25;;;;;;;7.35;2.83;;;;;;;15.66;77.63;101108.84;6002366;28;20033;-68
2022/10/30 04:09:21;;;;;;;11.20;3.00;;;;;;;15.65;77.38;101112.56;6002210;28;20035;-68
2022/10/30 04:12:16;;;;;;;9.27;2.50;;;;;;;15.67;77.42;101106.03;6002008;28;20026;-68
2022/10/30 04:15:11;;;;;;;7.90;2.87;;;;;;;15.70;77.20;101104.84;6001855;28;20045;-68
2022/10/30 04:18:10;;;;;;;11.00;3.20;;;;;;;15.68;76.93;101091.63;6001459;28;20286;-68
2022/10/30 04:21:05;;;;;;;5.65;2.85;;;;;;;15.70;77.06;101115.56;6001356;28;20504;-68
2022/10/30 04:24:00;;;;;;;7.57;2.70;;;;;;;15.76;76.80;101105.00;6002033;28;20154;-68
2022/10/30 04:26:56;;;;;;;10.50;3.30;;;;;;;15.94;76.38;101112.81;5992575;28;20046;-68
2022/10/30 04:29:51;;;;;;;9.60;2.80;;;;;;;15.93;76.42;101117.34;6001290;28;20278;-68
2022/10/30 04:32:47;;;;;;;6.90;2.83;;;;;;;15.95;76.36;101118.00;6000786;28;20039;-68
2022/10/30 04:35:42;;;;;;;11.75;3.33;;;;;;;15.87;77.40;101122.56;5999415;28;20043;-69
2022/10/30 04:38:37;;;;;;;7.03;2.70;;;;;;;15.81;76.41;101105.34;6000999;28;20035;-68
2022/10/30 04:41:33;;;;;;;9.63;3.03;;;;;;;15.84;76.81;101117.53;6001148;28;20034;-68
2022/10/30 04:44:28;;;;;;;7.35;2.80;;;;;;;15.76;76.41;101104.19;6001598;28;20270;-68
2022/10/30 04:47:23;;;;;;;9.87;2.47;;;;;;;15.75;76.77;101098.00;6001210;28;20069;-68
2022/10/30 04:50:19;;;;;;;9.90;3.33;;;;;;;15.74;76.81;101107.00;6000515;28;20266;-68
2022/10/30 04:53:17;;;;;;;6.97;2.70;;;;;;;15.65;77.00;101112.56;6000917;28;20038;-68
2022/10/30 04:56:12;;;;;;;10.13;3.00;;;;;;;15.55;77.37;101107.38;6000916;28;20340;-68
2022/10/30 04:59:07;;;;;;;12.67;3.37;;;;;;;15.41;78.17;101108.84;6000998;28;20035;-67
2022/10/30 05:02:03;;;;;;;11.50;3.47;;;;;;;15.34;78.57;101107.84;5999287;28;20039;-68
2022/10/30 05:04:58;;;;;;;8.57;3.05;;;;;;;15.19;78.88;101101.47;6000746;28;20266;-68
2022/10/30 05:07:53;;;;;;;6.70;3.03;;;;;;;15.16;79.12;101099.16;6000293;28;20114;-68
2022/10/30 05:10:49;;;;;;;9.43;3.17;;;;;;;15.17;79.05;101114.19;6000490;28;20018;-68
2022/10/30 05:13:44;;;;;;;11.20;3.60;;;;;;;15.13;79.28;101112.84;6000763;28;20100;-67
2022/10/30 05:16:40;;;;;;;16.50;3.07;;;;;;;15.18;79.83;101113.19;6001220;28;20512;-68
2022/10/30 05:19:36;;;;;;;8.30;3.25;;;;;;;15.14;79.38;101103.81;6001992;28;20050;-68
2022/10/30 05:22:31;;;;;;;7.23;3.20;;;;;;;15.14;79.58;101097.63;6002648;28;20455;-67
2022/10/30 05:25:27;;;;;;;6.88;2.90;;;;;;;15.12;79.63;101099.66;5992376;28;20027;-68
2022/10/30 05:28:22;;;;;;;8.07;2.90;;;;;;;15.11;80.15;101116.69;6000381;28;20078;-67
2022/10/30 05:31:17;;;;;;;9.07;2.77;;;;;;;15.03;80.03;101106.81;5999984;28;20094;-67
2022/10/30 05:34:13;;;;;;;8.83;3.50;;;;;;;14.95;80.48;101104.13;6000180;28;20387;-67
2022/10/30 05:37:08;;;;;;;9.97;4.63;;;;;;;14.92;80.74;101104.47;5999952;28;20031;-67
2022/10/30 05:40:04;;;;;;;7.13;2.97;;;;;;;14.81;81.10;101097.59;5999430;28;20027;-67
2022/10/30 05:42:59;;;;;;;11.10;3.17;;;;;;;14.89;80.59;101099.47;5999749;28;20049;-67
2022/10/30 05:45:55;;;;;;;8.90;3.53;;;;;;;14.94;80.43;101097.13;5999895;28;20049;-68
2022/10/30 05:48:50;;;;;;;13.77;3.70;;;;;;;15.04;80.26;101103.16;5999698;28;20045;-68
2022/10/30 05:51:45;;;;;;;6.60;2.73;;;;;;;15.17;79.49;101116.84;5998914;28;20522;-67
2022/10/30 05:54:41;;;;;;;13.60;3.92;;;;;;;15.13;79.80;101110.19;5999907;28;20322;-67
2022/10/30 05:57:36;;;;;;;8.83;3.40;;;;;;;15.19;79.17;101106.81;5999194;28;20049;-68
2022/10/30 06:00:33;;;;;;;8.67;2.90;;;;;;;15.12;79.65;101119.19;5999014;28;20057;-67
2022/10/30 06:03:28;;;;;;;11.07;2.95;;;;;;;15.08;79.36;101109.84;5999817;28;20042;-67
2022/10/30 06:06:24;;;;;;;8.83;2.70;;;;;;;15.17;79.45;101126.69;5999295;28;20038;-67
2022/10/30 06:09:19;;;;;;;12.90;3.70;;;;;;;15.03;79.06;101117.50;5999729;28;20074;-67
2022/10/30 06:12:14;;;;;;;8.90;3.67;;;;;;;15.06;79.54;101124.34;5998052;28;20442;-67
2022/10/30 06:15:11;;;;;;;10.70;3.53;;;;;;;14.94;80.16;101109.66;5999700;28;20163;-67
2022/10/30 06:18:06;;;;;;;7.10;3.00;;;;;;;15.00;80.14;101135.72;5998956;28;20045;-67
2022/10/30 06:21:02;;;;;;;11.80;4.30;;;;;;;15.19;79.35;101141.56;5998397;28;20035;-68
2022/10/30 06:23:57;;;;;;;11.18;3.08;;;;;;;15.12;78.89;101135.22;5998606;28;20124;-67
2022/10/30 06:26:53;;;;;;;9.82;3.72;;;;;;;15.18;79.60;101147.94;5998817;28;20786;-67
2022/10/30 06:29:48;;;;;;;13.90;5.07;;;;;;;15.16;79.46;101144.59;5999045;28;20039;-67
2022/10/30 06:32:44;;;;;;;11.03;2.90;;;;;;;15.04;79.93;101135.22;5996839;28;20490;-68
2022/10/30 06:35:40;;;;;;;8.25;2.60;;;;;;;14.99;80.56;101142.03;5999105;28;20270;-67
2022/10/30 06:38:35;;;;;;;9.63;3.07;;;;;;;15.05;80.25;101152.91;5999277;28;20031;-67
2022/10/30 06:41:30;;;;;;;10.13;2.90;;;;;;;15.05;80.32;101154.75;5997212;28;20090;-67
2022/10/30 06:44:26;;;;;;;12.07;3.33;;;;;;;14.98;80.74;101143.88;5999016;28;20074;-67
2022/10/30 06:47:21;;;;;;;8.83;3.27;;;;;;;15.01;80.63;101156.91;5998626;28;20278;-67
2022/10/30 06:50:19;;;;;;;8.33;2.70;;;;;;;15.20;79.98;101156.59;5997987;28;20134;-67
2022/10/30 06:53:14;;;;;;;7.40;2.97;;;;;;;15.30;79.80;101159.94;5998665;28;20390;-67
2022/10/30 06:56:10;;;;;;;10.90;3.73;;;;;;;15.20;80.37;101163.78;5998709;28;20039;-67
2022/10/30 06:59:06;;;;;;;11.33;3.40;;;;;;;15.21;80.30;101162.78;5999477;28;20062;-67
2022/10/30 07:02:01;;;;;;;8.90;2.75;;;;;;;15.25;80.50;101169.47;5997918;28;20041;-67
2022/10/30 07:04:56;;;;;;;9.13;3.10;;;;;;;15.33;79.77;101178.31;5997820;28;20109;-67
2022/10/30 07:07:55;;;;;;;10.33;3.13;;;;;;;15.26;79.83;101173.81;5998537;28;20049;-67
2022/10/30 07:10:50;;;;;;;9.55;3.28;;;;;;;15.25;80.07;101181.00;5997859;28;20064;-67
2022/10/30 07:13:45;;;;;;;10.93;3.30;;;;;;;15.38;79.94;101194.69;5995667;28;20497;-67
2022/10/30 07:16:42;;;;;;;11.87;3.57;;;;;;;15.31;80.76;101206.22;5997718;28;20647;-67
2022/10/30 07:19:37;;;;;;;8.85;3.10;;;;;;;15.31;80.68;101201.72;5998803;28;20470;-67
2022/10/30 07:22:33;;;;;;;9.17;3.37;;;;;;;15.39;80.79;101204.41;5998218;28;20035;-67
2022/10/30 07:25:29;;;;;;;11.57;3.50;;;;;;;15.53;80.46;101207.44;5995436;28;20142;-67
2022/10/30 07:28:24;;;;;;;12.65;3.35;;;;;;;15.66;79.70;101195.25;6003385;28;20027;-67
2022/10/30 07:31:19;;;;;;;6.57;2.93;;;;;;;16.04;78.14;101204.44;6002271;28;20150;-67
2022/10/30 07:34:15;;;;;;;8.97;2.83;;;;;;;16.25;77.17;101209.25;6003080;28;20037;-68
2022/10/30 07:37:10;;;;;;;11.73;3.70;;;;;;;16.29;76.54;101198.03;6002292;28;20483;-67
2022/10/30 07:40:06;;;;;;;8.43;3.27;;;;;;;16.57;75.58;101218.06;6002431;28;20510;-67
2022/10/30 07:43:03;;;;;;;10.00;2.90;;;;;;;16.77;75.13;101220.34;6002756;28;20030;-67
2022/10/30 07:45:58;;;;;;;7.32;3.03;;;;;;;16.87;73.91;101204.88;6002855;28;20097;-68
2022/10/30 07:48:55;;;;;;;8.13;3.20;;;;;;;17.12;73.15;101222.53;6002348;28;20030;-68
2022/10/30 07:51:50;;;;;;;10.68;3.20;;;;;;;17.26;71.99;101224.44;6001622;28;20031;-67
2022/10/30 07:54:46;;;;;;;8.38;3.20;;;;;;;17.29;72.16;101224.06;6002146;28;20039;-68
2022/10/30 07:57:42;;;;;;;11.63;3.47;;;;;;;17.60;71.39;101232.97;6001604;28;20027;-68
2022/10/30 08:00:37;;;;;;;9.52;3.33;;;;;;;17.72;69.94;101218.09;6000858;28;20031;-68
2022/10/30 08:03:32;;;;;;;9.90;3.42;;;;;;;17.89;69.94;101215.28;6002127;28;20114;-67
2022/10/30 08:06:28;;;;;;;8.70;3.30;;;;;;;18.10;68.78;101218.13;6002733;28;20035;-67
2022/10/30 08:09:23;;;;;;;11.43;3.65;;;;;;;18.00;68.96;101218.38;6004124;28;20117;-67
2022/10/30 08:12:18;;;;;;;12.13;3.43;;;;;;;18.05;69.23;101231.25;6002017;28;20034;-67
2022/10/30 08:15:14;;;;;;;12.03;3.43;;;;;;;18.03;68.97;101227.91;6001709;28;20077;-67
2022/10/30 08:18:09;;;;;;;8.85;3.83;;;;;;;18.17;68.07;101224.44;6001767;28;20041;-68
2022/10/30 08:21:04;;;;;;;8.60;3.43;;;;;;;18.24;68.67;101220.81;6000871;28;20074;-67
2022/10/30 08:24:00;;;;;;;11.40;3.83;;;;;;;18.21;68.27;101214.97;6001466;28;20536;-67
2022/10/30 08:26:55;;;;;;;13.73;3.07;;;;;;;18.36;68.06;101191.66;6001647;28;20458;-68
2022/10/30 08:29:50;;;;;;;10.27;3.53;;;;;;;18.34;67.86;101204.47;6001334;28;20031;-67
2022/10/30 08:32:46;;;;;;;11.13;3.13;;;;;;;18.57;66.79;101205.22;6001104;28;20039;-68
2022/10/30 08:35:49;;;;;;;7.90;3.07;;;;;;;18.78;65.90;101197.22;6001075;28;20059;-68
2022/10/30 08:38:44;;;;;;;9.07;3.08;;;;;;;18.92;65.68;101196.38;6001318;28;20294;-67
2022/10/30 08:41:39;;;;;;;12.67;3.37;;;;;;;18.95;65.28;101200.53;6000132;28;20537;-68
2022/10/30 08:44:35;;;;;;;13.57;3.80;;;;;;;19.15;65.24;101188.16;6000706;28;20122;-68
2022/10/30 08:47:30;;;;;;;9.23;3.00;;;;;;;19.34;63.83;101187.56;6000772;28;20923;-67
2022/10/30 08:50:26;;;;;;;8.57;3.07;;;;;;;19.36;64.39;101187.34;5999305;28;20046;-67
2022/10/30 08:53:22;;;;;;;10.73;3.55;;;;;;;19.29;64.65;101197.22;6000900;28;20055;-68
2022/10/30 08:56:17;;;;;;;10.45;3.65;;;;;;;19.30;64.33;101186.25;6001315;28;20394;-68
2022/10/30 08:59:13;;;;;;;7.63;3.60;;;;;;;19.48;64.24;101196.63;6000638;28;20069;-68
2022/10/30 09:02:08;;;;;;;10.43;3.63;;;;;;;19.40;63.88;101188.69;5999852;28;20568;-68
2022/10/30 09:05:05;;;;;;;10.23;3.63;;;;;;;19.43;63.07;101197.16;6000391;28;20050;-68
2022/10/30 09:08:00;;;;;;;17.90;3.63;;;;;;;19.66;63.11;101201.53;6001153;28;20030;-69
2022/10/30 09:10:56;;;;;;;9.97;3.67;;;;;;;19.74;62.83;101199.53;6000505;28;20035;-68
2022/10/30 09:13:52;;;;;;;9.75;3.38;;;;;;;19.84;61.65;101189.28;6000604;28;20768;-68
2022/10/30 09:16:47;;;;;;;10.53;3.60;;;;;;;19.79;62.08;101180.09;6000706;28;20031;-68
2022/10/30 09:19:43;;;;;;;10.00;3.67;;;;;;;19.62;61.94;101176.06;6000656;28;20037;-67
2022/10/30 09:22:42;;;;;;;10.05;3.20;;;;;;;19.82;62.52;101185.09;6000479;28;20054;-69
2022/10/30 09:25:37;;;;;;;8.88;3.63;;;;;;;20.03;62.28;101180.50;6000733;28;20382;-68
2022/10/30 09:28:33;;;;;;;12.63;3.63;;;;;;;20.37;60.76;101178.91;6000385;28;20026;-67
2022/10/30 09:31:29;;;;;;;9.02;3.20;;;;;;;20.35;61.12;101192.59;5999608;28;20471;-66
2022/10/30 09:34:25;;;;;;;11.33;2.97;;;;;;;20.72;59.87;101205.66;6000186;28;20033;-68
2022/10/30 09:37:22;;;;;;;10.10;3.20;;;;;;;20.73;60.71;101196.53;6000252;28;20609;-67
2022/10/30 09:40:22;;;;;;;7.72;2.92;;;;;;;20.93;59.27;101207.38;5999621;28;20035;-70
2022/10/30 09:43:47;;;;;;;8.30;2.60;;;;;;;20.91;58.86;101211.31;5998953;28;20035;-69
2022/10/30 09:47:03;;;;;;;9.50;2.92;;;;;;;21.32;57.67;101215.66;6000080;28;20035;-70
2022/10/30 09:50:02;;;;;;;11.32;3.47;;;;;;;21.42;57.97;101214.41;5999862;28;20089;-69
2022/10/30 09:53:29;;;;;;;12.00;3.55;;;;;;;21.33;59.51;101209.22;5998123;28;20026;-68
2022/10/30 09:56:35;;;;;;;10.68;2.90;;;;;;;21.18;59.98;101208.56;5998635;28;20039;-67
2022/10/30 10:00:02;;;;;;;7.05;2.88;;;;;;;21.73;57.62;101214.69;5998414;28;20031;-68
2022/10/30 10:03:08;;;;;;;10.85;3.35;;;;;;;21.79;57.56;101206.59;5998546;28;20398;-67
2022/10/30 10:06:05;;;;;;;7.03;3.00;;;;;;;21.70;56.91;101188.94;5998122;28;20394;-67
2022/10/30 10:09:03;;;;;;;10.38;3.35;;;;;;;21.76;57.32;101204.31;5998774;28;20035;-67
2022/10/30 10:12:06;;;;;;;7.93;3.08;;;;;;;21.99;56.71;101206.59;5997752;28;20035;-68
2022/10/30 10:15:09;;;;;;;8.10;3.20;;;;;;;22.10;57.06;101200.56;5998377;28;20031;-68
2022/10/30 10:18:12;;;;;;;10.88;3.08;;;;;;;21.91;56.57;101194.16;5998117;28;20081;-68
2022/10/30 10:21:13;;;;;;;11.35;3.15;;;;;;;21.76;57.22;101187.28;5997369;28;20046;-67
2022/10/30 10:24:16;;;;;;;8.77;3.42;;;;;;;21.76;56.89;101182.72;5998082;28;20035;-66
2022/10/30 10:27:35;;;;;;;9.18;3.78;;;;;;;22.05;57.55;101194.97;5999546;28;20386;-67
2022/10/30 10:30:41;;;;;;;14.07;3.92;;;;;;;21.91;57.99;101185.22;5997287;28;20393;-67
2022/10/30 10:34:01;;;;;;;12.05;3.30;;;;;;;22.13;57.35;101192.06;5998380;28;20049;-68
2022/10/30 10:37:05;;;;;;;13.02;3.42;;;;;;;22.35;55.97;101188.06;5998991;28;20061;-67
2022/10/30 10:40:38;;;;;;;8.60;3.50;;;;;;;22.28;56.11;101205.34;5998954;28;20441;-67
2022/10/30 10:43:45;;;;;;;10.52;3.45;;;;;;;22.17;56.32;101196.03;5998699;28;20031;-67
2022/10/30 10:47:01;;;;;;;16.80;3.60;;;;;;;22.34;54.43;101201.81;5999117;28;20034;-67
2022/10/30 10:50:11;;;;;;;9.35;3.35;;;;;;;22.28;54.28;101202.66;5991093;28;20047;-67
2022/10/30 10:53:23;;;;;;;8.13;3.08;;;;;;;22.41;54.40;101186.41;5997860;28;20030;-68
2022/10/30 10:56:21;;;;;;;9.27;2.92;;;;;;;22.32;54.35;101195.78;6000007;28;20085;-67
2022/10/30 10:59:38;;;;;;;9.57;3.05;;;;;;;22.06;55.35;101187.72;6002269;28;20097;-67
2022/10/30 11:02:44;;;;;;;13.10;3.22;;;;;;;21.78;55.27;101182.50;6006244;28;20030;-67
2022/10/30 11:05:50;;;;;;;10.85;3.28;;;;;;;21.49;55.90;101191.00;6005430;28;20113;-68
2022/10/30 11:08:46;;;;;;;11.15;2.90;;;;;;;21.31;55.59;101183.47;6005475;28;20799;-67
2022/10/30 11:11:45;;;;;;;10.15;2.88;;;;;;;21.21;55.77;101183.03;6005756;28;20030;-67
2022/10/30 11:14:41;;;;;;;9.20;3.58;;;;;;;21.15;55.92;101189.25;6016447;28;20786;-67
2022/10/30 11:17:58;;;;;;;11.63;3.15;;;;;;;21.09;57.09;101180.09;6006581;28;20041;-67
2022/10/30 11:20:58;;;;;;;8.00;3.08;;;;;;;21.20;56.17;101179.50;6005685;28;20097;-67
2022/10/30 11:23:54;;;;;;;11.50;2.97;;;;;;;21.07;56.01;101165.97;6005673;28;20025;-67
2022/10/30 11:26:49;;;;;;;9.60;3.37;;;;;;;21.03;55.92;101174.66;5988434;28;20462;-68
2022/10/30 11:29:51;;;;;;;16.63;3.60;;;;;;;20.95;56.02;101164.91;6006236;28;20259;-67
2022/10/30 11:32:47;;;;;;;8.63;2.47;;;;;;;20.90;55.28;101167.34;6005478;28;20034;-67
2022/10/30 11:35:42;;;;;;;9.13;2.90;;;;;;;21.00;56.63;101175.06;6004796;28;20026;-68
2022/10/30 11:38:37;;;;;;;9.90;2.90;;;;;;;20.86;55.56;101167.97;6005338;28;20089;-68
2022/10/30 11:41:33;;;;;;;9.63;3.17;;;;;;;20.82;55.94;101164.00;6005880;28;20389;-67
2022/10/30 11:44:40;;;;;;;11.03;3.37;;;;;;;20.79;55.95;101170.63;6006571;28;20039;-67
2022/10/30 11:47:36;;;;;;;12.48;3.47;;;;;;;20.72;56.88;101162.50;6004950;28;20721;-67
2022/10/30 11:50:33;;;;;;;8.40;2.90;;;;;;;20.82;56.86;101162.13;6002298;28;20079;-67
2022/10/30 11:53:33;;;;;;;10.77;3.28;;;;;;;20.76;56.95;101152.16;6004694;28;20031;-68
2022/10/30 11:56:30;;;;;;;7.70;3.28;;;;;;;20.77;57.95;101149.25;6005794;28;20065;-68
2022/10/30 11:59:26;;;;;;;13.07;3.90;;;;;;;21.00;55.92;101148.94;6004766;28;20430;-68
2022/10/30 12:02:25;;;;;;;10.65;3.70;;;;;;;20.94;56.63;101144.34;6003542;28;20042;-68
2022/10/30 12:05:24;;;;;;;9.13;3.00;;;;;;;21.12;55.71;101155.41;6006169;28;20049;-68
2022/10/30 12:08:20;;;;;;;9.82;3.00;;;;;;;21.08;56.10;101148.78;6005891;28;20039;-68
2022/10/30 12:11:16;;;;;;;11.27;2.85;;;;;;;21.01;55.55;101138.97;6001661;28;20043;-68
2022/10/30 12:14:25;;;;;;;10.25;3.30;;;;;;;21.00;55.18;101138.13;6002118;28;20089;-68
2022/10/30 12:17:21;;;;;;;14.60;3.25;;;;;;;21.08;55.62;101126.38;6001693;28;20043;-68
2022/10/30 12:20:17;;;;;;;11.90;3.10;;;;;;;21.09;56.23;101125.34;6001692;28;20049;-67
2022/10/30 12:23:19;;;;;;;10.68;3.22;;;;;;;21.00;57.26;101124.66;6000485;28;20422;-68
2022/10/30 12:26:14;;;;;;;9.35;3.25;;;;;;;21.07;56.41;101127.38;6000878;28;20371;-68
2022/10/30 12:29:14;;;;;;;12.03;3.80;;;;;;;21.07;56.18;101113.91;6001859;28;20070;-68
2022/10/30 12:32:14;;;;;;;8.82;2.75;;;;;;;21.06;57.30;101121.13;6001257;28;20321;-68
2022/10/30 12:35:31;;;;;;;7.10;2.90;;;;;;;21.15;56.01;101130.72;6000490;28;20041;-68
2022/10/30 12:38:32;;;;;;;11.98;3.20;;;;;;;21.25;54.78;101117.66;6001969;28;20035;-68
2022/10/30 12:41:41;;;;;;;10.65;3.33;;;;;;;21.24;55.15;101117.88;6001647;28;20443;-68
2022/10/30 12:44:42;;;;;;;10.07;3.20;;;;;;;21.34;55.90;101121.84;6000427;28;20065;-68
2022/10/30 12:47:57;;;;;;;11.77;3.25;;;;;;;21.33;55.84;101122.84;6000353;28;20030;-69
2022/10/30 12:51:31;;;;;;;10.02;2.97;;;;;;;21.41;54.94;101107.53;5999341;28;20505;-68
2022/10/30 12:54:35;;;;;;;8.55;3.17;;;;;;;21.39;54.02;101101.50;5990739;28;20038;-68
2022/10/30 12:57:40;;;;;;;12.10;3.10;;;;;;;21.30;53.80;101085.53;6000397;28;20039;-68
2022/10/30 13:00:42;;;;;;;7.97;2.78;;;;;;;21.32;53.73;101077.22;5999129;28;20045;-68
2022/10/30 13:03:41;;;;;;;10.18;3.15;;;;;;;21.44;53.84;101082.81;6001367;28;20030;-68
2022/10/30 13:06:51;;;;;;;13.63;3.47;;;;;;;21.49;53.89;101088.41;5999456;28;20447;-68
2022/10/30 13:09:55;;;;;;;10.18;2.78;;;;;;;21.56;55.07;101083.84;6001153;28;20073;-68
2022/10/30 13:12:53;;;;;;;10.20;3.80;;;;;;;21.55;54.10;101077.59;5999147;28;20045;-68
2022/10/30 13:15:53;;;;;;;11.80;2.95;;;;;;;21.65;54.75;101078.03;5999756;28;20146;-68
2022/10/30 13:18:50;;;;;;;10.57;3.75;;;;;;;21.51;55.54;101078.25;5999826;28;20066;-68
2022/10/30 13:21:56;;;;;;;13.23;4.10;;;;;;;21.36;55.74;101049.59;5998613;28;20030;-67
2022/10/30 13:25:25;;;;;;;10.73;3.40;;;;;;;21.53;56.12;101074.28;5998973;28;20034;-68
2022/10/30 13:28:39;;;;;;;9.80;3.28;;;;;;;21.59;56.60;101078.88;6000712;28;20233;-68
2022/10/30 13:32:11;;;;;;;8.07;3.35;;;;;;;21.46;57.07;101073.47;6000061;28;20121;-67
2022/10/30 13:35:22;;;;;;;11.35;3.30;;;;;;;21.46;57.05;101073.47;6000484;28;20109;-70
2022/10/30 13:38:35;;;;;;;9.90;2.85;;;;;;;21.47;57.79;101058.13;5999049;28;20101;-68
2022/10/30 13:41:42;;;;;;;;;;;;;;;21.58;58.04;101071.00;5999742;28;20647;-67
2022/10/30 13:44:50;;;;;;;9.65;3.45;;;;;;;21.51;58.01;101076.38;6000196;28;19917;-67
2022/10/30 13:48:19;;;;;;;13.10;4.20;;;;;;;21.49;58.49;101074.94;5999223;28;20423;-67
2022/10/30 13:51:28;;;;;;;12.02;3.63;;;;;;;21.34;59.06;101075.97;5992616;28;20042;-67